createdAt,value
2023-05-06T00:00:52.576Z,358.00
2023-05-06T00:01:52.587Z,356.00
2023-05-06T00:02:52.700Z,355.00
2023-05-06T00:03:52.738Z,354.00
2023-05-06T00:04:52.691Z,354.00
2023-05-06T00:05:52.633Z,353.00
2023-05-06T00:06:52.658Z,354.00
2023-05-06T00:07:52.643Z,356.00
2023-05-06T00:08:52.659Z,358.00
2023-05-06T00:09:52.679Z,362.00
2023-05-06T00:10:52.712Z,364.00
2023-05-06T00:11:52.694Z,364.00
2023-05-06T00:12:52.753Z,363.00
2023-05-06T00:13:52.725Z,366.00
2023-05-06T00:14:52.754Z,365.00
2023-05-06T00:15:52.805Z,363.00
2023-05-06T00:16:52.774Z,363.00
2023-05-06T00:17:52.806Z,362.00
2023-05-06T00:18:52.801Z,359.00
2023-05-06T00:19:52.801Z,359.00
2023-05-06T00:20:52.825Z,359.00
2023-05-06T00:21:52.830Z,362.00
2023-05-06T00:22:52.853Z,361.00
2023-05-06T00:23:52.866Z,363.00
2023-05-06T00:24:52.869Z,363.00
2023-05-06T00:25:52.943Z,363.00
2023-05-06T00:26:52.905Z,362.00
2023-05-06T00:27:52.912Z,361.00
2023-05-06T00:28:52.921Z,362.00
2023-05-06T00:29:52.946Z,364.00
2023-05-06T00:30:52.988Z,361.00
2023-05-06T00:31:52.995Z,361.00
2023-05-06T00:32:53.037Z,359.00
2023-05-06T00:33:53.018Z,358.00
2023-05-06T00:34:53.044Z,355.00
2023-05-06T00:35:53.063Z,354.00
2023-05-06T00:36:53.073Z,353.00
2023-05-06T00:37:53.108Z,354.00
2023-05-06T00:38:53.121Z,356.00
2023-05-06T00:39:53.165Z,356.00
2023-05-06T00:40:53.154Z,356.00
2023-05-06T00:41:53.233Z,356.00
2023-05-06T00:42:53.207Z,354.00
2023-05-06T00:43:53.218Z,353.00
2023-05-06T00:44:53.264Z,354.00
2023-05-06T00:45:53.330Z,353.00
2023-05-06T00:46:53.273Z,354.00
2023-05-06T00:47:53.344Z,356.00
2023-05-06T00:48:53.319Z,358.00
2023-05-06T00:49:53.322Z,360.00
2023-05-06T00:50:53.359Z,360.00
2023-05-06T00:51:53.374Z,360.00
2023-05-06T00:52:53.394Z,360.00
2023-05-06T00:53:53.415Z,361.00
2023-05-06T00:54:53.438Z,360.00
2023-05-06T00:55:53.446Z,360.00
2023-05-06T00:56:53.480Z,360.00
2023-05-06T00:57:53.549Z,360.00
2023-05-06T00:58:53.528Z,361.00
2023-05-06T00:59:53.594Z,361.00
2023-05-06T01:00:53.621Z,365.00
2023-05-06T01:01:53.610Z,369.00
2023-05-06T01:02:53.690Z,373.00
2023-05-06T01:03:53.861Z,374.00
2023-05-06T01:04:53.695Z,376.00
2023-05-06T01:05:53.671Z,374.00
2023-05-06T01:06:53.685Z,372.00
2023-05-06T01:07:53.731Z,371.00
2023-05-06T01:08:53.741Z,370.00
2023-05-06T01:09:53.767Z,369.00
2023-05-06T01:10:53.791Z,369.00
2023-05-06T01:11:53.792Z,367.00
2023-05-06T01:12:53.869Z,366.00
2023-05-06T01:13:53.901Z,365.00
2023-05-06T01:14:53.867Z,363.00
2023-05-06T01:15:53.935Z,362.00
2023-05-06T01:16:53.964Z,361.00
2023-05-06T01:17:54.104Z,362.00
2023-05-06T01:18:53.944Z,360.00
2023-05-06T01:19:53.992Z,362.00
2023-05-06T01:20:54.033Z,362.00
2023-05-06T01:21:53.997Z,363.00
2023-05-06T01:22:54.063Z,362.00
2023-05-06T01:23:54.050Z,363.00
2023-05-06T01:24:54.093Z,364.00
2023-05-06T01:25:54.096Z,363.00
2023-05-06T01:26:54.116Z,363.00
2023-05-06T01:27:54.122Z,363.00
2023-05-06T01:28:54.153Z,364.00
2023-05-06T01:29:54.225Z,366.00
2023-05-06T01:30:54.232Z,366.00
2023-05-06T01:31:54.238Z,367.00
2023-05-06T01:32:54.298Z,366.00
2023-05-06T01:33:54.283Z,365.00
2023-05-06T01:34:54.280Z,364.00
2023-05-06T01:35:54.339Z,365.00
2023-05-06T01:36:54.327Z,364.00
2023-05-06T01:37:54.370Z,364.00
2023-05-06T01:38:54.387Z,364.00
2023-05-06T01:39:54.394Z,364.00
2023-05-06T01:40:54.411Z,364.00
2023-05-06T01:41:54.436Z,364.00
2023-05-06T01:42:54.468Z,364.00
2023-05-06T01:43:54.489Z,365.00
2023-05-06T01:44:54.528Z,365.00
2023-05-06T01:45:54.588Z,364.00
2023-05-06T01:46:54.568Z,364.00
2023-05-06T01:47:54.704Z,360.00
2023-05-06T01:48:54.613Z,360.00
2023-05-06T01:49:54.648Z,360.00
2023-05-06T01:50:54.675Z,360.00
2023-05-06T01:51:54.699Z,359.00
2023-05-06T01:52:54.739Z,358.00
2023-05-06T01:53:54.775Z,358.00
2023-05-06T01:54:54.806Z,359.00
2023-05-06T01:55:54.841Z,358.00
2023-05-06T01:56:54.861Z,360.00
2023-05-06T01:57:54.876Z,361.00
2023-05-06T01:58:54.903Z,361.00
2023-05-06T01:59:54.998Z,362.00
2023-05-06T02:00:54.979Z,362.00
2023-05-06T02:01:55.101Z,362.00
2023-05-06T02:02:55.143Z,360.00
2023-05-06T02:03:55.157Z,361.00
2023-05-06T02:04:55.105Z,358.00
2023-05-06T02:05:55.127Z,358.00
2023-05-06T02:06:55.141Z,356.00
2023-05-06T02:07:55.212Z,358.00
2023-05-06T02:08:55.210Z,361.00
2023-05-06T02:09:55.276Z,363.00
2023-05-06T02:10:55.268Z,362.00
2023-05-06T02:11:55.317Z,364.00
2023-05-06T02:12:55.410Z,365.00
2023-05-06T02:13:55.360Z,364.00
2023-05-06T02:14:55.438Z,364.00
2023-05-06T02:15:55.461Z,362.00
2023-05-06T02:16:55.449Z,363.00
2023-05-06T02:17:55.594Z,361.00
2023-05-06T02:18:55.522Z,359.00
2023-05-06T02:19:55.608Z,360.00
2023-05-06T02:20:55.576Z,359.00
2023-05-06T02:21:55.619Z,360.00
2023-05-06T02:22:55.664Z,363.00
2023-05-06T02:23:55.669Z,363.00
2023-05-06T02:24:55.718Z,363.00
2023-05-06T02:25:55.719Z,363.00
2023-05-06T02:26:55.741Z,364.00
2023-05-06T02:27:55.774Z,363.00
2023-05-06T02:28:55.861Z,365.00
2023-05-06T02:29:55.865Z,364.00
2023-05-06T02:30:55.873Z,366.00
2023-05-06T02:31:56.012Z,366.00
2023-05-06T02:32:55.965Z,365.00
2023-05-06T02:33:56.006Z,367.00
2023-05-06T02:34:56.003Z,365.00
2023-05-06T02:35:56.012Z,367.00
2023-05-06T02:36:56.042Z,367.00
2023-05-06T02:37:56.097Z,367.00
2023-05-06T02:38:56.111Z,365.00
2023-05-06T02:39:56.146Z,362.00
2023-05-06T02:40:56.173Z,358.00
2023-05-06T02:41:56.234Z,360.00
2023-05-06T02:42:56.349Z,359.00
2023-05-06T02:43:56.293Z,360.00
2023-05-06T02:44:56.346Z,361.00
2023-05-06T02:45:56.368Z,364.00
2023-05-06T02:46:56.372Z,364.00
2023-05-06T02:47:56.521Z,366.00
2023-05-06T02:48:56.463Z,366.00
2023-05-06T02:49:56.486Z,365.00
2023-05-06T02:50:56.514Z,365.00
2023-05-06T02:51:56.564Z,365.00
2023-05-06T02:52:56.616Z,365.00
2023-05-06T02:53:56.666Z,365.00
2023-05-06T02:54:56.657Z,365.00
2023-05-06T02:55:56.712Z,363.00
2023-05-06T02:56:56.749Z,360.00
2023-05-06T02:57:56.785Z,359.00
2023-05-06T02:58:56.814Z,361.00
2023-05-06T02:59:56.869Z,364.00
2023-05-06T03:00:56.905Z,368.00
2023-05-06T03:01:56.932Z,369.00
2023-05-06T03:02:56.998Z,370.00
2023-05-06T03:03:57.006Z,371.00
2023-05-06T03:04:57.043Z,373.00
2023-05-06T03:05:57.126Z,370.00
2023-05-06T03:06:57.107Z,368.00
2023-05-06T03:07:57.167Z,372.00
2023-05-06T03:08:57.168Z,373.00
2023-05-06T03:09:57.204Z,374.00
2023-05-06T03:10:57.237Z,374.00
2023-05-06T03:11:57.274Z,373.00
2023-05-06T03:12:57.371Z,372.00
2023-05-06T03:13:57.359Z,370.00
2023-05-06T03:14:57.415Z,370.00
2023-05-06T03:15:57.437Z,371.00
2023-05-06T03:16:57.553Z,372.00
2023-05-06T03:17:57.554Z,372.00
2023-05-06T03:18:57.542Z,372.00
2023-05-06T03:19:57.609Z,373.00
2023-05-06T03:20:57.637Z,374.00
2023-05-06T03:21:57.727Z,374.00
2023-05-06T03:22:57.704Z,373.00
2023-05-06T03:23:57.726Z,372.00
2023-05-06T03:24:57.787Z,373.00
2023-05-06T03:25:57.790Z,372.00
2023-05-06T03:26:57.843Z,374.00
2023-05-06T03:27:58.122Z,373.00
2023-05-06T03:28:57.898Z,374.00
2023-05-06T03:29:57.954Z,373.00
2023-05-06T03:30:57.977Z,371.00
2023-05-06T03:31:58.073Z,373.00
2023-05-06T03:32:58.121Z,373.00
2023-05-06T03:33:58.099Z,375.00
2023-05-06T03:34:58.187Z,373.00
2023-05-06T03:35:58.175Z,372.00
2023-05-06T03:36:58.197Z,371.00
2023-05-06T03:37:58.249Z,370.00
2023-05-06T03:38:58.267Z,370.00
2023-05-06T03:39:58.324Z,372.00
2023-05-06T03:40:58.337Z,373.00
2023-05-06T03:41:58.404Z,373.00
2023-05-06T03:42:58.412Z,370.00
2023-05-06T03:43:58.442Z,371.00
2023-05-06T03:44:58.479Z,371.00
2023-05-06T03:45:58.568Z,370.00
2023-05-06T03:46:58.550Z,371.00
2023-05-06T03:47:58.751Z,374.00
2023-05-06T03:48:58.641Z,374.00
2023-05-06T03:49:58.700Z,374.00
2023-05-06T03:50:58.712Z,374.00
2023-05-06T03:51:58.738Z,375.00
2023-05-06T03:52:58.866Z,374.00
2023-05-06T03:53:58.880Z,375.00
2023-05-06T03:54:58.869Z,379.00
2023-05-06T03:55:58.898Z,378.00
2023-05-06T03:56:58.939Z,376.00
2023-05-06T03:57:59.012Z,376.00
2023-05-06T03:58:59.012Z,378.00
2023-05-06T03:59:59.051Z,377.00
2023-05-06T04:00:59.099Z,375.00
2023-05-06T04:01:59.155Z,375.00
2023-05-06T04:02:59.231Z,376.00
2023-05-06T04:03:59.244Z,375.00
2023-05-06T04:04:59.263Z,375.00
2023-05-06T04:05:59.295Z,374.00
2023-05-06T04:06:59.331Z,375.00
2023-05-06T04:07:59.397Z,376.00
2023-05-06T04:08:59.431Z,376.00
2023-05-06T04:09:59.460Z,379.00
2023-05-06T04:10:59.516Z,378.00
2023-05-06T04:11:59.545Z,379.00
2023-05-06T04:12:59.675Z,379.00
2023-05-06T04:13:59.647Z,382.00
2023-05-06T04:14:59.667Z,382.00
2023-05-06T04:15:59.754Z,384.00
2023-05-06T04:16:59.759Z,381.00
2023-05-06T04:17:59.848Z,381.00
2023-05-06T04:18:59.821Z,382.00
2023-05-06T04:19:59.877Z,382.00
2023-05-06T04:20:59.922Z,382.00
2023-05-06T04:21:59.975Z,378.00
2023-05-06T04:23:00.030Z,380.00
2023-05-06T04:24:00.060Z,379.00
2023-05-06T04:25:00.123Z,377.00
2023-05-06T04:26:00.186Z,375.00
2023-05-06T04:27:00.163Z,377.00
2023-05-06T04:28:00.223Z,378.00
2023-05-06T04:29:00.251Z,380.00
2023-05-06T04:30:00.289Z,380.00
2023-05-06T04:31:00.329Z,380.00
2023-05-06T04:32:00.446Z,380.00
2023-05-06T04:33:00.398Z,382.00
2023-05-06T04:34:00.419Z,382.00
2023-05-06T04:35:00.482Z,380.00
2023-05-06T04:36:00.491Z,379.00
2023-05-06T04:37:00.541Z,379.00
2023-05-06T04:38:00.605Z,380.00
2023-05-06T04:39:00.611Z,381.00
2023-05-06T04:40:00.664Z,380.00
2023-05-06T04:41:00.687Z,379.00
2023-05-06T04:42:00.781Z,378.00
2023-05-06T04:43:00.790Z,377.00
2023-05-06T04:44:00.813Z,375.00
2023-05-06T04:45:00.867Z,375.00
2023-05-06T04:46:00.926Z,375.00
2023-05-06T04:47:00.945Z,375.00
2023-05-06T04:48:01.034Z,374.00
2023-05-06T04:49:01.006Z,375.00
2023-05-06T04:50:01.054Z,377.00
2023-05-06T04:51:01.081Z,376.00
2023-05-06T04:52:01.136Z,374.00
2023-05-06T04:53:01.196Z,374.00
2023-05-06T04:54:01.197Z,374.00
2023-05-06T04:55:01.248Z,375.00
2023-05-06T04:56:01.285Z,375.00
2023-05-06T04:57:01.343Z,374.00
2023-05-06T04:58:01.458Z,373.00
2023-05-06T04:59:01.426Z,371.00
2023-05-06T05:00:01.463Z,370.00
2023-05-06T05:01:01.549Z,366.00
2023-05-06T05:02:01.615Z,367.00
2023-05-06T05:03:01.722Z,369.00
2023-05-06T05:04:01.633Z,369.00
2023-05-06T05:05:01.676Z,368.00
2023-05-06T05:06:01.730Z,368.00
2023-05-06T05:07:01.765Z,367.00
2023-05-06T05:08:01.842Z,367.00
2023-05-06T05:09:01.854Z,368.00
2023-05-06T05:10:01.909Z,367.00
2023-05-06T05:11:01.940Z,367.00
2023-05-06T05:12:01.975Z,370.00
2023-05-06T05:13:02.052Z,371.00
2023-05-06T05:14:02.573Z,369.00
2023-05-06T05:15:02.173Z,369.00
2023-05-06T05:16:02.159Z,367.00
2023-05-06T05:17:02.209Z,366.00
2023-05-06T05:18:02.239Z,366.00
2023-05-06T05:19:03.767Z,366.00
2023-05-06T05:20:02.252Z,364.00
2023-05-06T05:21:02.249Z,364.00
2023-05-06T05:22:02.287Z,365.00
2023-05-06T05:23:02.343Z,366.00
2023-05-06T05:24:02.335Z,366.00
2023-05-06T05:25:02.391Z,364.00
2023-05-06T05:26:02.399Z,361.00
2023-05-06T05:27:02.426Z,361.00
2023-05-06T05:28:02.456Z,358.00
2023-05-06T05:29:02.485Z,355.00
2023-05-06T05:30:02.667Z,355.00
2023-05-06T05:31:02.562Z,355.00
2023-05-06T05:32:02.564Z,355.00
2023-05-06T05:33:02.712Z,357.00
2023-05-06T05:34:02.623Z,355.00
2023-05-06T05:35:02.685Z,355.00
2023-05-06T05:36:02.742Z,356.00
2023-05-06T05:37:02.739Z,357.00
2023-05-06T05:38:02.813Z,359.00
2023-05-06T05:39:02.822Z,362.00
2023-05-06T05:40:02.881Z,364.00
2023-05-06T05:41:02.916Z,365.00
2023-05-06T05:42:02.947Z,366.00
2023-05-06T05:43:02.998Z,367.00
2023-05-06T05:44:03.007Z,368.00
2023-05-06T05:45:03.074Z,369.00
2023-05-06T05:46:03.153Z,370.00
2023-05-06T05:47:03.122Z,368.00
2023-05-06T05:48:03.254Z,370.00
2023-05-06T05:49:03.229Z,372.00
2023-05-06T05:50:03.295Z,375.00
2023-05-06T05:51:03.294Z,373.00
2023-05-06T05:52:03.353Z,372.00
2023-05-06T05:53:03.367Z,370.00
2023-05-06T05:54:03.400Z,370.00
2023-05-06T05:55:03.428Z,369.00
2023-05-06T05:56:03.405Z,369.00
2023-05-06T05:57:03.432Z,372.00
2023-05-06T05:58:03.473Z,373.00
2023-05-06T05:59:03.510Z,373.00
2023-05-06T06:00:03.544Z,372.00
2023-05-06T06:01:03.560Z,368.00
2023-05-06T06:02:03.706Z,365.00
2023-05-06T06:03:03.680Z,366.00
2023-05-06T06:04:03.901Z,369.00
2023-05-06T06:05:03.674Z,368.00
2023-05-06T06:06:03.697Z,368.00
2023-05-06T06:07:03.725Z,367.00
2023-05-06T06:08:04.093Z,368.00
2023-05-06T06:09:03.769Z,369.00
2023-05-06T06:10:03.816Z,373.00
2023-05-06T06:11:03.800Z,374.00
2023-05-06T06:12:03.833Z,374.00
2023-05-06T06:13:03.929Z,371.00
2023-05-06T06:14:03.901Z,369.00
2023-05-06T06:15:03.933Z,368.00
2023-05-06T06:16:03.958Z,368.00
2023-05-06T06:17:03.956Z,368.00
2023-05-06T06:18:04.339Z,369.00
2023-05-06T06:19:04.006Z,369.00
2023-05-06T06:20:04.061Z,369.00
2023-05-06T06:21:04.047Z,366.00
2023-05-06T06:22:04.084Z,367.00
2023-05-06T06:23:04.110Z,367.00
2023-05-06T06:24:04.142Z,369.00
2023-05-06T06:25:04.191Z,370.00
2023-05-06T06:26:04.193Z,370.00
2023-05-06T06:27:04.211Z,370.00
2023-05-06T06:28:04.237Z,370.00
2023-05-06T06:29:04.256Z,368.00
2023-05-06T06:30:04.317Z,367.00
2023-05-06T06:31:04.323Z,368.00
2023-05-06T06:32:04.368Z,368.00
2023-05-06T06:33:04.399Z,367.00
2023-05-06T06:34:04.393Z,368.00
2023-05-06T06:35:04.444Z,368.00
2023-05-06T06:36:04.458Z,371.00
2023-05-06T06:37:05.361Z,370.00
2023-05-06T06:38:04.482Z,370.00
2023-05-06T06:39:04.489Z,371.00
2023-05-06T06:40:04.534Z,370.00
2023-05-06T06:41:04.528Z,369.00
2023-05-06T06:42:04.567Z,368.00
2023-05-06T06:43:04.561Z,369.00
2023-05-06T06:44:04.590Z,369.00
2023-05-06T06:45:04.615Z,367.00
2023-05-06T06:46:04.625Z,366.00
2023-05-06T06:47:04.658Z,367.00
2023-05-06T06:48:04.678Z,366.00
2023-05-06T06:49:04.641Z,366.00
2023-05-06T06:50:04.712Z,365.00
2023-05-06T06:51:04.627Z,366.00
2023-05-06T06:52:04.641Z,365.00
2023-05-06T06:53:06.403Z,365.00
2023-05-06T06:54:04.678Z,364.00
2023-05-06T06:55:04.670Z,364.00
2023-05-06T06:56:04.627Z,364.00
2023-05-06T06:57:04.689Z,366.00
2023-05-06T06:58:04.693Z,366.00
2023-05-06T06:59:04.652Z,363.00
2023-05-06T07:00:04.659Z,363.00
2023-05-06T07:01:04.714Z,360.00
2023-05-06T07:02:04.697Z,357.00
2023-05-06T07:03:04.775Z,353.00
2023-05-06T07:04:07.049Z,349.00
2023-05-06T07:05:04.854Z,352.00
2023-05-06T07:06:04.919Z,351.00
2023-05-06T07:07:04.981Z,350.00
2023-05-06T07:08:05.035Z,349.00
2023-05-06T07:09:05.096Z,350.00
2023-05-06T07:10:05.171Z,352.00
2023-05-06T07:11:05.224Z,353.00
2023-05-06T07:12:05.275Z,351.00
2023-05-06T07:13:05.463Z,352.00
2023-05-06T07:14:05.388Z,352.00
2023-05-06T07:15:05.447Z,353.00
2023-05-06T07:16:05.485Z,354.00
2023-05-06T07:17:05.557Z,352.00
2023-05-06T07:18:05.704Z,351.00
2023-05-06T07:19:05.606Z,350.00
2023-05-06T07:20:05.651Z,349.00
2023-05-06T07:21:05.668Z,349.00
2023-05-06T07:22:05.756Z,352.00
2023-05-06T07:23:05.746Z,353.00
2023-05-06T07:24:05.742Z,353.00
2023-05-06T07:25:05.743Z,353.00
2023-05-06T07:26:05.769Z,354.00
2023-05-06T07:27:05.792Z,354.00
2023-05-06T07:28:05.835Z,353.00
2023-05-06T07:29:05.836Z,356.00
2023-05-06T07:30:05.877Z,354.00
2023-05-06T07:31:05.898Z,353.00
2023-05-06T07:32:05.926Z,347.00
2023-05-06T07:33:06.001Z,348.00
2023-05-06T07:34:05.949Z,345.00
2023-05-06T07:35:05.981Z,344.00
2023-05-06T07:36:05.986Z,343.00
2023-05-06T07:37:06.025Z,342.00
2023-05-06T07:38:06.138Z,343.00
2023-05-06T07:39:06.072Z,343.00
2023-05-06T07:40:06.070Z,343.00
2023-05-06T07:41:06.092Z,343.00
2023-05-06T07:42:06.114Z,344.00
2023-05-06T07:43:06.142Z,345.00
2023-05-06T07:44:06.156Z,345.00
2023-05-06T07:45:06.179Z,344.00
2023-05-06T07:46:06.250Z,346.00
2023-05-06T07:47:06.363Z,347.00
2023-05-06T07:48:06.263Z,347.00
2023-05-06T07:49:06.241Z,343.00
2023-05-06T07:50:06.266Z,344.00
2023-05-06T07:51:06.302Z,345.00
2023-05-06T07:52:06.332Z,350.00
2023-05-06T07:53:06.360Z,349.00
2023-05-06T07:54:06.427Z,348.00
2023-05-06T07:55:06.411Z,347.00
2023-05-06T07:56:06.423Z,344.00
2023-05-06T07:57:06.466Z,344.00
2023-05-06T07:58:06.484Z,344.00
2023-05-06T07:59:06.532Z,345.00
2023-05-06T08:00:06.561Z,345.00
2023-05-06T08:01:06.589Z,345.00
2023-05-06T08:02:06.666Z,346.00
2023-05-06T08:03:06.733Z,348.00
2023-05-06T08:04:06.847Z,349.00
2023-05-06T08:05:06.740Z,346.00
2023-05-06T08:06:06.758Z,348.00
2023-05-06T08:07:06.785Z,345.00
2023-05-06T08:08:06.802Z,345.00
2023-05-06T08:09:06.839Z,347.00
2023-05-06T08:10:06.981Z,348.00
2023-05-06T08:11:06.914Z,348.00
2023-05-06T08:12:06.949Z,347.00
2023-05-06T08:13:07.031Z,347.00
2023-05-06T08:14:07.012Z,347.00
2023-05-06T08:15:07.060Z,347.00
2023-05-06T08:16:07.119Z,348.00
2023-05-06T08:17:07.127Z,348.00
2023-05-06T08:18:20.795Z,347.00
2023-05-06T08:19:08.144Z,349.00
2023-05-06T08:20:07.178Z,350.00
2023-05-06T08:21:07.154Z,352.00
2023-05-06T08:22:07.132Z,353.00
2023-05-06T08:23:07.123Z,351.00
2023-05-06T08:24:07.111Z,348.00
2023-05-06T08:25:07.124Z,346.00
2023-05-06T08:26:07.089Z,347.00
2023-05-06T08:27:07.104Z,346.00
2023-05-06T08:28:07.075Z,344.00
2023-05-06T08:29:07.079Z,343.00
2023-05-06T08:30:07.059Z,343.00
2023-05-06T08:31:07.083Z,344.00
2023-05-06T08:32:07.205Z,345.00
2023-05-06T08:33:07.229Z,350.00
2023-05-06T08:34:07.212Z,349.00
2023-05-06T08:35:07.245Z,348.00
2023-05-06T08:36:07.313Z,347.00
2023-05-06T08:37:07.352Z,346.00
2023-05-06T08:38:07.412Z,346.00
2023-05-06T08:39:07.422Z,346.00
2023-05-06T08:40:07.493Z,347.00
2023-05-06T08:41:07.538Z,348.00
2023-05-06T08:42:07.617Z,348.00
2023-05-06T08:43:07.604Z,348.00
2023-05-06T08:44:07.661Z,348.00
2023-05-06T08:45:07.776Z,348.00
2023-05-06T08:46:07.849Z,347.00
2023-05-06T08:47:07.771Z,348.00
2023-05-06T08:48:07.806Z,350.00
2023-05-06T08:49:07.838Z,348.00
2023-05-06T08:50:07.866Z,345.00
2023-05-06T08:51:07.924Z,343.00
2023-05-06T08:52:07.938Z,344.00
2023-05-06T08:53:08.000Z,344.00
2023-05-06T08:54:08.046Z,346.00
2023-05-06T08:55:08.109Z,345.00
2023-05-06T08:56:08.112Z,343.00
2023-05-06T08:57:10.294Z,346.00
2023-05-06T08:58:08.125Z,345.00
2023-05-06T08:59:08.132Z,341.00
2023-05-06T09:00:08.120Z,343.00
2023-05-06T09:01:08.171Z,343.00
2023-05-06T09:02:08.137Z,342.00
2023-05-06T09:03:08.184Z,342.00
2023-05-06T09:04:08.090Z,342.00
2023-05-06T09:05:08.130Z,341.00
2023-05-06T09:06:08.126Z,340.00
2023-05-06T09:07:08.117Z,339.00
2023-05-06T09:08:08.078Z,338.00
2023-05-06T09:09:08.061Z,339.00
2023-05-06T09:10:08.193Z,339.00
2023-05-06T09:11:08.043Z,340.00
2023-05-06T09:12:08.054Z,339.00
2023-05-06T09:13:08.095Z,338.00
2023-05-06T09:14:08.149Z,337.00
2023-05-06T09:15:08.210Z,336.00
2023-05-06T09:16:08.027Z,335.00
2023-05-06T09:17:08.141Z,335.00
2023-05-06T09:18:08.058Z,336.00
2023-05-06T09:19:08.015Z,333.00
2023-05-06T09:20:08.003Z,333.00
2023-05-06T09:21:07.975Z,335.00
2023-05-06T09:22:07.978Z,336.00
2023-05-06T09:23:07.960Z,336.00
2023-05-06T09:24:07.969Z,339.00
2023-05-06T09:25:08.137Z,337.00
2023-05-06T09:26:07.937Z,341.00
2023-05-06T09:27:10.309Z,342.00
2023-05-06T09:28:07.977Z,340.00
2023-05-06T09:29:07.939Z,340.00
2023-05-06T09:30:07.953Z,341.00
2023-05-06T09:31:07.932Z,340.00
2023-05-06T09:32:07.911Z,343.00
2023-05-06T09:33:07.914Z,343.00
2023-05-06T09:34:07.888Z,342.00
2023-05-06T09:35:08.049Z,342.00
2023-05-06T09:36:07.889Z,342.00
2023-05-06T09:37:07.869Z,343.00
2023-05-06T09:38:07.895Z,341.00
2023-05-06T09:39:07.846Z,339.00
2023-05-06T09:40:07.873Z,341.00
2023-05-06T09:41:07.836Z,343.00
2023-05-06T09:42:07.827Z,343.00
2023-05-06T09:43:07.838Z,344.00
2023-05-06T09:44:07.817Z,346.00
2023-05-06T09:45:07.882Z,345.00
2023-05-06T09:46:07.964Z,345.00
2023-05-06T09:47:07.786Z,344.00
2023-05-06T09:48:07.819Z,344.00
2023-05-06T09:49:07.781Z,344.00
2023-05-06T09:50:07.860Z,342.00
2023-05-06T09:51:07.757Z,340.00
2023-05-06T09:52:07.814Z,344.00
2023-05-06T09:53:07.734Z,344.00
2023-05-06T09:54:07.763Z,343.00
2023-05-06T09:55:07.871Z,343.00
2023-05-06T09:56:07.733Z,342.00
2023-05-06T09:57:07.735Z,342.00
2023-05-06T09:58:07.720Z,344.00
2023-05-06T09:59:07.709Z,341.00
2023-05-06T10:00:07.735Z,341.00
2023-05-06T10:01:07.835Z,340.00
2023-05-06T10:02:07.786Z,342.00
2023-05-06T10:03:07.866Z,341.00
2023-05-06T10:04:07.788Z,340.00
2023-05-06T10:05:07.810Z,339.00
2023-05-06T10:06:07.658Z,341.00
2023-05-06T10:07:07.657Z,342.00
2023-05-06T10:08:07.656Z,341.00
2023-05-06T10:09:07.638Z,340.00
2023-05-06T10:10:07.627Z,342.00
2023-05-06T10:11:07.655Z,340.00
2023-05-06T10:12:07.638Z,340.00
2023-05-06T10:13:07.742Z,341.00
2023-05-06T10:14:07.716Z,341.00
2023-05-06T10:15:07.695Z,338.00
2023-05-06T10:16:07.816Z,340.00
2023-05-06T10:17:07.736Z,338.00
2023-05-06T10:18:07.968Z,336.00
2023-05-06T10:19:07.805Z,337.00
2023-05-06T10:20:07.812Z,338.00
2023-05-06T10:21:07.841Z,340.00
2023-05-06T10:22:07.891Z,341.00
2023-05-06T10:23:07.871Z,340.00
2023-05-06T10:24:07.886Z,340.00
2023-05-06T10:25:08.014Z,337.00
2023-05-06T10:26:07.964Z,334.00
2023-05-06T10:27:07.965Z,336.00
2023-05-06T10:28:10.831Z,335.00
2023-05-06T10:29:08.991Z,332.00
2023-05-06T10:30:07.970Z,330.00
2023-05-06T10:31:07.982Z,329.00
2023-05-06T10:32:07.974Z,329.00
2023-05-06T10:33:08.163Z,330.00
2023-05-06T10:34:07.938Z,332.00
2023-05-06T10:35:08.008Z,333.00
2023-05-06T10:36:08.016Z,334.00
2023-05-06T10:37:07.919Z,331.00
2023-05-06T10:38:07.891Z,336.00
2023-05-06T10:39:07.905Z,333.00
2023-05-06T10:40:07.879Z,334.00
2023-05-06T10:41:07.880Z,334.00
2023-05-06T10:42:07.889Z,332.00
2023-05-06T10:43:07.876Z,333.00
2023-05-06T10:44:07.853Z,335.00
2023-05-06T10:45:07.879Z,339.00
2023-05-06T10:46:08.024Z,340.00
2023-05-06T10:47:07.849Z,338.00
2023-05-06T10:48:07.873Z,336.00
2023-05-06T10:49:07.823Z,337.00
2023-05-06T10:50:07.873Z,334.00
2023-05-06T10:51:07.831Z,331.00
2023-05-06T10:52:07.869Z,330.00
2023-05-06T10:53:07.867Z,332.00
2023-05-06T10:54:07.885Z,332.00
2023-05-06T10:55:07.981Z,331.00
2023-05-06T10:56:07.937Z,331.00
2023-05-06T10:57:07.985Z,331.00
2023-05-06T10:58:07.964Z,331.00
2023-05-06T10:59:08.313Z,333.00
2023-05-06T11:00:08.009Z,335.00
2023-05-06T11:01:08.097Z,334.00
2023-05-06T11:02:08.100Z,331.00
2023-05-06T11:03:08.253Z,330.00
2023-05-06T11:04:08.108Z,328.00
2023-05-06T11:05:08.230Z,329.00
2023-05-06T11:06:08.126Z,331.00
2023-05-06T11:07:08.178Z,332.00
2023-05-06T11:08:08.183Z,333.00
2023-05-06T11:09:08.203Z,333.00
2023-05-06T11:10:08.342Z,335.00
2023-05-06T11:11:08.217Z,336.00
2023-05-06T11:12:08.237Z,334.00
2023-05-06T11:13:08.265Z,332.00
2023-05-06T11:14:08.303Z,332.00
2023-05-06T11:15:08.457Z,334.00
2023-05-06T11:16:08.314Z,334.00
2023-05-06T11:17:08.387Z,336.00
2023-05-06T11:18:08.430Z,336.00
2023-05-06T11:19:08.374Z,333.00
2023-05-06T11:20:08.667Z,330.00
2023-05-06T11:21:08.431Z,333.00
2023-05-06T11:22:08.491Z,334.00
2023-05-06T11:23:08.480Z,333.00
2023-05-06T11:24:08.468Z,333.00
2023-05-06T11:25:08.483Z,334.00
2023-05-06T11:26:08.531Z,336.00
2023-05-06T11:27:08.527Z,335.00
2023-05-06T11:28:08.559Z,335.00
2023-05-06T11:29:08.586Z,335.00
2023-05-06T11:30:08.737Z,335.00
2023-05-06T11:31:08.667Z,335.00
2023-05-06T11:32:08.652Z,334.00
2023-05-06T11:33:08.709Z,334.00
2023-05-06T11:34:08.693Z,332.00
2023-05-06T11:35:08.711Z,332.00
2023-05-06T11:36:08.735Z,331.00
2023-05-06T11:37:08.741Z,332.00
2023-05-06T11:38:08.876Z,330.00
2023-05-06T11:39:08.795Z,330.00
2023-05-06T11:40:09.027Z,331.00
2023-05-06T11:41:08.831Z,332.00
2023-05-06T11:42:08.842Z,334.00
2023-05-06T11:43:08.839Z,336.00
2023-05-06T11:44:11.385Z,339.00
2023-05-06T11:45:08.882Z,340.00
2023-05-06T11:46:08.846Z,340.00
2023-05-06T11:47:08.853Z,339.00
2023-05-06T11:48:08.824Z,337.00
2023-05-06T11:49:08.832Z,334.00
2023-05-06T11:50:09.134Z,335.00
2023-05-06T11:51:08.822Z,333.00
2023-05-06T11:52:08.854Z,333.00
2023-05-06T11:53:08.783Z,333.00
2023-05-06T11:54:08.946Z,333.00
2023-05-06T11:55:08.812Z,331.00
2023-05-06T11:56:08.791Z,334.00
2023-05-06T11:57:08.792Z,332.00
2023-05-06T11:58:08.771Z,332.00
2023-05-06T11:59:08.763Z,331.00
2023-05-06T12:00:08.892Z,332.00
2023-05-06T12:01:08.732Z,332.00
2023-05-06T12:02:08.756Z,335.00
2023-05-06T12:03:08.770Z,335.00
2023-05-06T12:04:08.793Z,335.00
2023-05-06T12:05:08.710Z,333.00
2023-05-06T12:06:08.688Z,334.00
2023-05-06T12:07:08.718Z,336.00
2023-05-06T12:08:19.856Z,339.00
2023-05-06T12:09:09.694Z,339.00
2023-05-06T12:10:09.021Z,339.00
2023-05-06T12:11:08.720Z,340.00
2023-05-06T12:12:08.668Z,338.00
2023-05-06T12:13:08.831Z,336.00
2023-05-06T12:14:08.667Z,336.00
2023-05-06T12:15:08.656Z,338.00
2023-05-06T12:16:08.701Z,337.00
2023-05-06T12:17:08.624Z,337.00
2023-05-06T12:18:08.727Z,336.00
2023-05-06T12:19:08.632Z,334.00
2023-05-06T12:20:08.767Z,334.00
2023-05-06T12:21:08.587Z,333.00
2023-05-06T12:22:08.597Z,333.00
2023-05-06T12:23:08.571Z,333.00
2023-05-06T12:24:08.615Z,334.00
2023-05-06T12:25:08.599Z,332.00
2023-05-06T12:26:08.618Z,331.00
2023-05-06T12:27:08.552Z,332.00
2023-05-06T12:28:08.573Z,334.00
2023-05-06T12:29:08.558Z,335.00